Hovedside
METAR-TAF:

METAR-TAF

Lufthavner :

Portland internasjonale lufthavn

Portland, Oregon, USA

breddegrad: 45-35-27N, lengdegrad: 122-36-01W, høyde over havet: 8 m

Gjeldene værobservasjon

Denne rapporten ble laget for 48 minutter siden, klokken 16:10 UTC
Vind 3 kt fra Nord
Temperatur 8°C
Luftfuktighet 100%
Trykk 1026 hPa
Sikt: 0.4 km
tåke

METAR: KPDX 191610Z 36003KT 1/4SM R10R/1800V2800FT FG VV002 08/08 A3029 RMK AO2 T00830078

Tid: 09:58 (16:58 UTC)

Varsel

Denne rapporten ble laget for 53 minutter siden, klokken 16:05 UTC
Varsel gyldig fra 19. klokken 16 UTC til 20. klokken 12 UTC
Vind 3 kt fra Nord-nordvest
Sikt: 0.4 km
i en høyde av 200 ft
tåke
Fra 19. klokken 1700 UTC
Vind 4 kt fra Vest
Sikt: 10 km
Brutte skyer i en høyde av 400 ft
Fra 19. klokken 2000 UTC
Vind 4 kt fra Nordvest
Sikt: 10 km
Spredte skyer i en høyde av 25000 ft

TAF: KPDX 191605Z 1916/2012 33003KT 1/4SM FG VV002 FM191700 28004KT P6SM BKN004 FM192000 31004KT P6SM SCT250

Værobservasjoner og værvarsel for over 4000 flyplasser (METAR- og TAF-rapporter).

Tilgjengelige stasjoner er representert av de røde og gule prikkene på kartet.

Hold musepekeren over prikken for å se navnet på stasjonen.

Klikk så for å se værobservasjoner og -varsler.

For å forandre kartet kan du klikke på den grønne knappen med svart kryss for å zoome inn, på den grønne knappen med strek for å zoome ut, eller på de grønne pilene for å se tilstøtende kart.


METAR-TAF: